Time;durP1;ratioP1;P1;durP2;ratioP2;P2;SDS_P1;SDS_P2;PMS_P1;PMS_P2;Temp;Humidity;BMP_temperature;BMP_pressure;BME280_temperature;BME280_humidity;BME280_pressure;Samples;Min_cycle;Max_cycle;Signal;HPM_P1;HPM_P2
2022/08/31 00:06:03;;;;;;;4.13;2.30;;;;;;;19.19;59.86;101965.16;5094958;28;20098;-85
2022/08/31 00:08:29;;;;;;;4.13;2.50;;;;;;;19.21;59.62;101982.09;5094438;28;20472;-85
2022/08/31 00:10:55;;;;;;;4.82;2.60;;;;;;;19.18;59.60;101977.66;5094838;28;20036;-86
2022/08/31 00:13:22;;;;;;;4.53;2.40;;;;;;;19.17;60.09;101969.63;5094675;28;20493;-82
2022/08/31 00:15:49;;;;;;;5.53;2.60;;;;;;;19.12;60.09;101969.66;5094723;28;20036;-84
2022/08/31 00:18:16;;;;;;;5.05;2.60;;;;;;;19.12;59.86;101960.75;5094249;28;20032;-85
2022/08/31 00:20:42;;;;;;;6.35;2.50;;;;;;;19.12;60.20;101975.03;5094482;28;20040;-85
2022/08/31 00:23:12;;;;;;;5.75;2.80;;;;;;;19.05;60.17;101970.59;5094427;28;20077;-85
2022/08/31 00:25:40;;;;;;;5.13;2.63;;;;;;;19.02;60.55;101970.63;5094232;28;20415;-85
2022/08/31 00:28:08;;;;;;;4.95;2.50;;;;;;;18.98;60.45;101968.88;5094475;28;20030;-85
2022/08/31 00:30:33;;;;;;;5.88;2.75;;;;;;;18.99;60.43;101973.31;5094380;28;20058;-85
2022/08/31 00:33:00;;;;;;;5.18;2.60;;;;;;;19.00;60.63;101970.63;5094681;28;20028;-85
2022/08/31 00:35:27;;;;;;;5.55;2.75;;;;;;;18.91;61.01;101968.00;5076237;28;20089;-85
2022/08/31 00:37:53;;;;;;;4.75;2.78;;;;;;;18.89;61.09;101968.94;5094069;28;20024;-85
2022/08/31 00:40:18;;;;;;;3.97;2.40;;;;;;;18.86;61.50;101974.28;5094160;28;20476;-85
2022/08/31 00:42:44;;;;;;;5.20;2.70;;;;;;;18.75;61.25;101955.59;5093812;28;20036;-85
2022/08/31 00:45:09;;;;;;;7.13;2.85;;;;;;;18.77;61.70;101969.88;5094484;28;20040;-85
2022/08/31 00:47:35;;;;;;;5.97;2.83;;;;;;;18.73;61.76;101963.63;5093958;28;20039;-85
2022/08/31 00:50:05;;;;;;;5.18;2.80;;;;;;;18.66;61.80;101953.81;5094125;28;20067;-85
2022/08/31 00:52:34;;;;;;;7.55;2.80;;;;;;;18.68;61.52;101965.44;5093543;28;20058;-85
2022/08/31 00:55:04;;;;;;;3.42;2.50;;;;;;;18.70;61.54;101969.00;5093737;28;20499;-84
2022/08/31 00:57:35;;;;;;;4.43;2.70;;;;;;;18.69;62.07;101966.31;5093810;28;20028;-85
2022/08/31 01:00:06;;;;;;;6.78;2.83;;;;;;;18.65;61.99;101972.56;5093887;28;20129;-85
2022/08/31 01:02:32;;;;;;;3.78;2.63;;;;;;;18.62;61.91;101962.75;5093541;28;20097;-83
2022/08/31 01:04:57;;;;;;;5.95;2.63;;;;;;;18.59;62.19;101960.13;5093853;28;20397;-83
2022/08/31 01:07:23;;;;;;;4.75;2.67;;;;;;;18.63;61.69;101959.22;5093921;28;20048;-84
2022/08/31 01:09:48;;;;;;;6.82;2.80;;;;;;;18.67;61.92;101962.72;5093507;28;20031;-85
2022/08/31 01:12:14;;;;;;;6.18;2.80;;;;;;;18.58;62.42;101966.34;5093705;28;20115;-85
2022/08/31 01:14:40;;;;;;;3.72;2.70;;;;;;;18.60;62.46;101963.69;5093357;28;20124;-85
2022/08/31 01:17:06;;;;;;;6.68;2.70;;;;;;;18.50;62.73;101965.53;5092945;28;20032;-85
2022/08/31 01:19:37;;;;;;;4.68;2.72;;;;;;;18.51;62.61;101960.16;5093670;28;20062;-84
2022/08/31 01:22:11;;;;;;;6.75;2.90;;;;;;;18.46;62.47;101966.44;5093341;28;20035;-85
2022/08/31 01:24:40;;;;;;;7.03;2.65;;;;;;;18.44;63.11;101961.06;5093385;28;20028;-85
2022/08/31 01:27:06;;;;;;;3.90;2.60;;;;;;;18.45;62.81;101957.47;5093551;28;20051;-85
2022/08/31 01:29:33;;;;;;;5.20;2.58;;;;;;;18.46;62.84;101961.97;5093324;28;20432;-85
2022/08/31 01:31:59;;;;;;;4.13;2.70;;;;;;;18.40;63.08;101953.03;5092976;28;20032;-85
2022/08/31 01:34:25;;;;;;;7.60;2.70;;;;;;;18.42;62.90;101965.53;5093440;28;20043;-85
2022/08/31 01:36:51;;;;;;;5.10;2.78;;;;;;;18.40;62.94;101972.66;5093272;28;20038;-82
2022/08/31 01:39:18;;;;;;;5.25;2.70;;;;;;;18.34;63.12;101945.94;5093665;28;20024;-85
2022/08/31 01:41:44;;;;;;;5.15;2.65;;;;;;;18.37;63.33;101961.06;5093174;28;20032;-85
2022/08/31 01:44:12;;;;;;;4.97;2.80;;;;;;;18.32;63.21;101965.56;5075064;28;20457;-86
2022/08/31 01:46:38;;;;;;;6.53;2.78;;;;;;;18.30;63.95;101952.19;5093112;28;20024;-85
2022/08/31 01:49:04;;;;;;;5.30;2.80;;;;;;;18.34;63.18;101969.13;5074999;28;20032;-85
2022/08/31 01:51:29;;;;;;;5.07;2.80;;;;;;;18.33;63.34;101965.56;5093210;28;20091;-84
2022/08/31 01:53:55;;;;;;;4.70;2.85;;;;;;;18.27;63.38;101958.44;5093245;28;20056;-84
2022/08/31 01:56:25;;;;;;;5.97;2.88;;;;;;;18.26;63.26;101967.38;5092903;28;20050;-82
2022/08/31 01:58:51;;;;;;;5.55;2.78;;;;;;;18.31;63.97;101971.81;5093136;28;20028;-84
2022/08/31 02:01:18;;;;;;;6.50;2.50;;;;;;;18.18;63.48;101955.78;5092995;28;20028;-85
2022/08/31 02:03:43;;;;;;;4.57;2.72;;;;;;;18.23;64.16;101975.41;5093148;28;20085;-85
2022/08/31 02:06:11;;;;;;;4.63;2.53;;;;;;;18.25;63.69;101975.41;5093005;28;20436;-85
2022/08/31 02:08:37;;;;;;;6.07;2.80;;;;;;;18.17;63.81;101963.84;5093014;28;20070;-84
2022/08/31 02:11:04;;;;;;;3.78;2.88;;;;;;;18.27;63.05;101974.50;5092839;28;20032;-85
2022/08/31 02:13:31;;;;;;;5.05;2.80;;;;;;;18.23;63.56;101966.47;5093217;28;20098;-85
2022/08/31 02:15:57;;;;;;;8.68;2.80;;;;;;;18.23;63.37;101972.72;5093009;28;20066;-85
2022/08/31 02:18:23;;;;;;;5.63;2.80;;;;;;;18.22;63.19;101975.41;5092607;28;20465;-84
2022/08/31 02:20:48;;;;;;;5.63;2.67;;;;;;;18.24;63.41;101974.53;5093006;28;20043;-84
2022/08/31 02:23:13;;;;;;;7.00;2.83;;;;;;;18.17;63.58;101972.75;5092911;28;20032;-85
2022/08/31 02:25:39;;;;;;;4.20;2.55;;;;;;;18.18;64.22;101979.88;5093011;28;20039;-85
2022/08/31 02:28:04;;;;;;;5.22;2.95;;;;;;;18.06;63.61;101982.56;5092813;28;20047;-85
2022/08/31 02:30:30;;;;;;;6.53;3.00;;;;;;;18.00;64.12;101979.94;5096366;28;20044;-85
2022/08/31 02:32:55;;;;;;;4.00;2.90;;;;;;;18.02;63.70;101987.03;5096499;28;20028;-84
2022/08/31 02:35:20;;;;;;;5.93;2.97;;;;;;;17.96;64.59;101992.41;5096507;28;20036;-84
2022/08/31 02:37:46;;;;;;;4.60;2.70;;;;;;;17.96;64.30;101979.03;5096651;28;20480;-85
2022/08/31 02:40:11;;;;;;;5.78;3.00;;;;;;;17.84;64.42;101980.84;5096301;28;20081;-85
2022/08/31 02:42:37;;;;;;;5.70;2.75;;;;;;;17.80;64.67;101977.25;5096672;28;20032;-84
2022/08/31 02:45:04;;;;;;;7.70;2.90;;;;;;;17.83;65.15;101987.06;5096470;28;20031;-84
2022/08/31 02:47:30;;;;;;;4.45;2.70;;;;;;;17.83;65.05;101987.97;5096365;28;20079;-84
2022/08/31 02:49:56;;;;;;;4.70;2.65;;;;;;;17.74;64.89;101983.53;5095991;28;20056;-86
2022/08/31 02:52:21;;;;;;;6.25;2.75;;;;;;;17.79;65.29;101988.88;5096104;28;20559;-83
2022/08/31 02:54:46;;;;;;;4.82;2.90;;;;;;;17.74;64.75;101986.19;5096343;28;20032;-85
2022/08/31 02:57:12;;;;;;;3.97;2.83;;;;;;;17.69;64.76;101982.59;5096048;28;20036;-85
2022/08/31 02:59:37;;;;;;;5.20;2.50;;;;;;;17.76;64.59;101973.69;5095997;28;20040;-85
2022/08/31 03:02:03;;;;;;;8.13;3.00;;;;;;;17.70;65.18;101976.34;5095791;28;20024;-84
2022/08/31 03:04:29;;;;;;;5.55;2.90;;;;;;;17.71;65.07;101983.47;5096008;28;20028;-85
2022/08/31 03:06:54;;;;;;;7.53;2.95;;;;;;;17.65;64.76;101983.50;5096092;28;20036;-84
2022/08/31 03:09:20;;;;;;;5.25;3.08;;;;;;;17.64;64.94;101972.78;5096099;28;20040;-85
2022/08/31 03:11:45;;;;;;;6.45;2.92;;;;;;;17.48;65.30;101969.25;5095688;28;20071;-84
2022/08/31 03:14:11;;;;;;;7.97;3.13;;;;;;;17.50;65.56;101967.44;5095559;28;20039;-84
2022/08/31 03:16:39;;;;;;;6.35;2.90;;;;;;;17.41;65.55;101967.44;5095535;28;20103;-85
2022/08/31 03:19:06;;;;;;;3.92;2.75;;;;;;;17.43;65.60;101974.59;5095681;28;20512;-85
2022/08/31 03:21:31;;;;;;;4.85;3.17;;;;;;;17.39;65.43;101979.94;5077583;28;20099;-85
2022/08/31 03:23:57;;;;;;;5.43;3.00;;;;;;;17.37;65.67;101971.91;5095638;28;20436;-84
2022/08/31 03:26:23;;;;;;;4.88;2.78;;;;;;;17.33;65.56;101969.22;5095425;28;20033;-84
2022/08/31 03:28:48;;;;;;;4.22;2.80;;;;;;;17.30;65.49;101970.13;5096029;28;20080;-85
2022/08/31 03:31:13;;;;;;;4.93;3.00;;;;;;;17.23;65.57;101966.53;5095148;28;20115;-85
2022/08/31 03:33:39;;;;;;;4.20;2.70;;;;;;;17.25;65.96;101975.44;5095254;28;20028;-84
2022/08/31 03:36:04;;;;;;;7.40;2.97;;;;;;;17.22;65.75;101982.59;5060465;28;20161;-85
2022/08/31 03:38:30;;;;;;;7.15;2.92;;;;;;;17.19;65.38;101972.78;5095129;28;20115;-85
2022/08/31 03:40:56;;;;;;;4.80;2.70;;;;;;;17.23;65.31;101987.91;5094596;28;20035;-85
2022/08/31 03:43:21;;;;;;;5.78;3.00;;;;;;;17.21;65.08;101984.34;5095044;28;20032;-85
2022/08/31 03:45:48;;;;;;;6.40;2.60;;;;;;;17.21;65.30;101986.13;5095167;28;20499;-85
2022/08/31 03:48:14;;;;;;;6.28;2.80;;;;;;;17.15;65.44;101986.13;5094734;28;20381;-85
2022/08/31 03:50:40;;;;;;;4.63;2.80;;;;;;;17.11;64.97;101979.88;5095079;28;20036;-84
2022/08/31 03:53:07;;;;;;;4.70;2.75;;;;;;;17.10;65.00;101986.13;5095067;28;20393;-85
2022/08/31 03:55:34;;;;;;;4.35;2.85;;;;;;;17.08;65.09;101989.66;5094864;28;20043;-84
2022/08/31 03:57:59;;;;;;;4.10;2.90;;;;;;;17.15;64.90;101988.78;5094965;28;20092;-84
2022/08/31 04:00:26;;;;;;;4.53;2.80;;;;;;;17.10;64.65;101987.91;5076580;28;20162;-84
2022/08/31 04:02:52;;;;;;;6.35;3.03;;;;;;;16.99;64.89;101983.41;5094530;28;20024;-84
2022/08/31 04:05:18;;;;;;;5.70;2.70;;;;;;;16.96;64.74;101986.09;5094910;28;20062;-84
2022/08/31 04:07:44;;;;;;;5.95;2.83;;;;;;;16.98;65.07;101980.75;5094865;28;20053;-84
2022/08/31 04:10:13;;;;;;;3.60;2.72;;;;;;;16.92;64.54;101986.06;5094733;28;20394;-85
2022/08/31 04:12:39;;;;;;;6.65;2.80;;;;;;;16.94;64.76;101989.63;5094631;28;20035;-85
2022/08/31 04:15:06;;;;;;;5.40;2.70;;;;;;;16.95;64.76;101986.94;5094728;28;20105;-84
2022/08/31 04:17:32;;;;;;;4.30;2.70;;;;;;;16.88;64.20;101990.50;5075965;28;20054;-84
2022/08/31 04:19:57;;;;;;;6.80;2.70;;;;;;;16.88;64.04;101993.19;5094483;28;20028;-84
2022/08/31 04:22:23;;;;;;;5.88;2.83;;;;;;;16.86;63.87;101988.72;5094857;28;20040;-84
2022/08/31 04:24:48;;;;;;;6.47;2.90;;;;;;;16.82;64.12;101987.81;5094502;28;20473;-85
2022/08/31 04:27:13;;;;;;;6.78;2.80;;;;;;;16.73;64.01;101982.44;5094204;28;20094;-85
2022/08/31 04:29:39;;;;;;;3.10;2.40;;;;;;;16.76;64.38;102004.69;5094311;28;20470;-84
2022/08/31 04:32:04;;;;;;;3.88;2.70;;;;;;;16.72;64.21;101996.66;5093828;28;20051;-84
2022/08/31 04:34:30;;;;;;;4.40;2.58;;;;;;;16.73;64.35;101995.78;5094456;28;20036;-84
2022/08/31 04:36:55;;;;;;;5.25;2.75;;;;;;;16.72;64.10;102001.97;5094253;28;20050;-84
2022/08/31 04:39:21;;;;;;;6.88;2.70;;;;;;;16.72;64.22;101996.66;5094349;28;20040;-84
2022/08/31 04:41:47;;;;;;;7.80;2.63;;;;;;;16.70;63.80;101999.31;5094028;28;20107;-84
2022/08/31 04:44:13;;;;;;;7.15;2.65;;;;;;;16.66;63.91;101993.94;5094107;28;20028;-84
2022/08/31 04:46:38;;;;;;;6.13;2.70;;;;;;;16.63;64.00;102001.94;5093988;28;20028;-84
2022/08/31 04:49:06;;;;;;;6.97;2.88;;;;;;;16.59;64.07;102001.03;5093964;28;20039;-86
2022/08/31 04:51:35;;;;;;;4.90;2.50;;;;;;;16.54;64.59;101994.78;5093327;28;20028;-84
2022/08/31 04:54:02;;;;;;;5.47;2.65;;;;;;;16.44;64.10;101993.84;5093773;28;20063;-84
2022/08/31 04:56:30;;;;;;;6.88;2.80;;;;;;;16.43;64.23;101993.84;5093957;28;20114;-84
2022/08/31 04:58:59;;;;;;;6.40;2.70;;;;;;;16.48;63.98;102003.63;5093517;28;20477;-84
2022/08/31 05:01:26;;;;;;;6.53;2.60;;;;;;;16.46;64.05;102008.09;5093646;28;20032;-84
2022/08/31 05:03:52;;;;;;;5.03;2.72;;;;;;;16.46;63.86;102016.09;5093814;28;20081;-84
2022/08/31 05:06:24;;;;;;;3.60;2.47;;;;;;;16.37;64.07;102012.50;5093791;28;20040;-85
2022/08/31 05:08:55;;;;;;;8.25;2.70;;;;;;;16.28;63.89;102000.88;5093970;28;20050;-84
2022/08/31 05:11:22;;;;;;;5.28;2.50;;;;;;;16.31;63.99;102017.78;5093577;28;20035;-84
2022/08/31 05:13:48;;;;;;;4.97;2.65;;;;;;;16.23;64.30;102007.06;5075397;28;20035;-84
2022/08/31 05:16:15;;;;;;;9.77;2.95;;;;;;;16.26;64.01;102018.63;5093584;28;20032;-84
2022/08/31 05:18:42;;;;;;;4.10;2.35;;;;;;;16.24;63.72;102017.75;5093487;28;20032;-84
2022/08/31 05:21:29;;;;;;;9.48;2.80;;;;;;;16.22;64.02;102010.63;5093706;28;20424;-84
2022/08/31 05:24:00;;;;;;;4.38;2.55;;;;;;;16.19;63.93;102013.28;5093339;28;20035;-84
2022/08/31 05:26:32;;;;;;;4.82;2.80;;;;;;;16.20;63.66;102018.63;5093417;28;20163;-84
2022/08/31 05:28:59;;;;;;;5.25;2.50;;;;;;;16.14;64.04;102009.66;5075451;28;20024;-85
2022/08/31 05:31:27;;;;;;;6.00;2.35;;;;;;;16.18;63.44;102023.03;5093322;28;20020;-85
2022/08/31 05:33:55;;;;;;;6.47;2.45;;;;;;;16.15;63.70;102012.38;5093391;28;20093;-85
2022/08/31 05:36:20;;;;;;;4.85;2.35;;;;;;;16.23;63.58;102026.66;5075484;28;20461;-84
2022/08/31 05:38:46;;;;;;;4.07;2.33;;;;;;;16.28;63.17;102026.66;5092996;28;20517;-85
2022/08/31 05:41:12;;;;;;;5.10;2.47;;;;;;;16.32;62.78;102017.81;5093091;28;20035;-85
2022/08/31 05:43:38;;;;;;;5.07;2.25;;;;;;;16.44;62.76;102015.19;5093254;28;20037;-85
2022/08/31 05:46:09;;;;;;;6.07;2.20;;;;;;;16.46;62.23;102020.53;5093139;28;20024;-85
2022/08/31 05:48:36;;;;;;;4.90;2.40;;;;;;;16.54;61.88;102026.81;5093245;28;20153;-85
2022/08/31 05:51:08;;;;;;;6.43;2.45;;;;;;;16.62;61.60;102018.84;5092822;28;20024;-84
2022/08/31 05:53:35;;;;;;;5.88;2.33;;;;;;;16.67;60.87;102028.66;5092822;28;20520;-85
2022/08/31 05:56:13;;;;;;;5.28;2.30;;;;;;;16.66;60.74;102016.19;5093346;28;20135;-84
2022/08/31 05:58:41;;;;;;;5.75;2.47;;;;;;;16.66;60.27;102023.28;5093101;28;20032;-85
2022/08/31 06:01:37;;;;;;;4.88;2.33;;;;;;;16.76;60.81;102026.06;5092880;28;20103;-85
2022/08/31 06:04:02;;;;;;;3.42;2.28;;;;;;;16.77;59.86;102026.94;5075790;28;20044;-85
2022/08/31 06:06:28;;;;;;;5.95;2.17;;;;;;;16.85;60.23;102026.97;5097242;28;20024;-84
2022/08/31 06:08:54;;;;;;;2.92;2.25;;;;;;;16.87;59.96;102031.41;5097236;28;20047;-85
2022/08/31 06:11:22;;;;;;;4.97;2.30;;;;;;;16.99;59.82;102035.91;5097099;28;20200;-85
2022/08/31 06:13:51;;;;;;;4.93;2.30;;;;;;;17.05;59.02;102035.06;5097041;28;20531;-85
2022/08/31 06:16:17;;;;;;;4.95;2.50;;;;;;;17.19;58.78;102039.53;5097068;28;20031;-85
2022/08/31 06:18:50;;;;;;;7.32;2.40;;;;;;;17.37;58.18;102040.47;5097031;28;20051;-85
2022/08/31 06:21:19;;;;;;;7.53;2.35;;;;;;;17.51;57.45;102042.28;5096804;28;20114;-85
2022/08/31 06:23:47;;;;;;;4.53;2.55;;;;;;;17.65;57.13;102046.75;5096638;28;20093;-85
2022/08/31 06:26:14;;;;;;;6.85;2.47;;;;;;;17.70;56.85;102037.84;5096853;28;20032;-85
2022/08/31 06:28:47;;;;;;;6.65;2.67;;;;;;;17.86;56.28;102038.78;5096315;28;20052;-86
2022/08/31 06:31:36;;;;;;;8.60;2.42;;;;;;;18.19;55.78;102053.88;5096411;28;20533;-80
2022/08/31 06:34:03;;;;;;;6.13;2.25;;;;;;;18.39;54.69;102053.84;5096376;28;20032;-80
2022/08/31 06:36:30;;;;;;;4.80;2.30;;;;;;;18.41;53.98;102054.72;5096139;28;20032;-82
2022/08/31 06:39:00;;;;;;;4.45;2.40;;;;;;;18.46;53.95;102052.97;5096305;28;20047;-82
2022/08/31 06:41:32;;;;;;;6.28;2.30;;;;;;;18.46;53.67;102050.28;5096680;28;20387;-85
2022/08/31 06:44:00;;;;;;;3.83;2.40;;;;;;;18.66;53.07;102071.63;5096545;28;20024;-87
2022/08/31 06:46:26;;;;;;;6.45;2.67;;;;;;;18.94;53.34;102069.78;5096158;28;20036;-86
2022/08/31 06:48:56;;;;;;;4.05;2.33;;;;;;;19.00;52.23;102076.88;5078016;28;20032;-82
2022/08/31 06:51:23;;;;;;;11.60;2.60;;;;;;;19.11;52.18;102072.38;5095865;28;20036;-82
2022/08/31 06:53:49;;;;;;;5.00;2.47;;;;;;;19.32;50.66;102075.84;5095962;28;20068;-82
2022/08/31 06:56:17;;;;;;;5.72;2.20;;;;;;;19.43;50.64;102063.25;5096191;28;20028;-81
2022/08/31 06:58:43;;;;;;;4.03;2.60;;;;;;;19.62;50.74;102075.69;5095826;28;20453;-83
2022/08/31 07:01:12;;;;;;;5.32;2.10;;;;;;;19.68;50.10;102072.94;5095794;28;20149;-82
2022/08/31 07:03:39;;;;;;;7.22;3.03;;;;;;;19.55;48.88;102076.59;5095705;28;20060;-83
2022/08/31 07:06:09;;;;;;;7.05;2.30;;;;;;;19.36;50.31;102078.50;5077680;28;20397;-82
2022/08/31 07:08:37;;;;;;;4.45;2.40;;;;;;;19.14;50.82;102079.50;5095612;28;20043;-81
2022/08/31 07:11:03;;;;;;;4.43;2.50;;;;;;;19.00;50.50;102075.09;5095626;28;20024;-93
2022/08/31 07:13:29;;;;;;;4.95;2.70;;;;;;;19.00;51.64;102075.09;5096818;28;20044;-86
2022/08/31 07:16:05;;;;;;;5.00;2.50;;;;;;;19.14;51.04;102076.81;5095706;28;20066;-82
2022/08/31 07:18:31;;;;;;;9.13;2.20;;;;;;;19.24;50.42;102074.09;5096569;28;20514;-82
2022/08/31 07:21:09;;;;;;;5.65;2.75;;;;;;;19.56;49.69;102083.72;5095879;28;20042;-81
2022/08/31 07:23:34;;;;;;;6.07;2.30;;;;;;;19.75;49.88;102084.53;5095987;28;20036;-81
2022/08/31 07:26:05;;;;;;;9.27;3.08;;;;;;;20.15;48.58;102085.09;5096003;28;20089;-81
2022/08/31 07:28:32;;;;;;;6.82;2.55;;;;;;;20.34;47.98;102075.06;5095435;28;20042;-82
2022/08/31 07:30:59;;;;;;;7.53;2.70;;;;;;;20.58;47.64;102073.06;5095120;28;20127;-82
2022/08/31 07:33:25;;;;;;;5.32;2.47;;;;;;;20.78;47.19;102079.09;5095390;28;20032;-78
2022/08/31 07:35:50;;;;;;;5.85;2.50;;;;;;;20.87;45.92;102092.41;5095474;28;20371;-80
2022/08/31 07:43:43;;;;;;;6.07;3.08;;;;;;;21.48;44.87;102088.94;5095249;28;20520;-78
2022/08/31 07:46:09;;;;;;;3.50;2.30;;;;;;;21.41;44.69;102076.50;5095328;28;20123;-83
2022/08/31 07:48:34;;;;;;;6.53;2.60;;;;;;;21.55;45.09;102076.28;5095269;28;20058;-82
2022/08/31 07:51:00;;;;;;;5.25;2.58;;;;;;;21.83;44.30;102076.72;5095287;28;20114;-91
2022/08/31 07:53:25;;;;;;;3.88;2.42;;;;;;;21.98;44.02;102081.00;5095354;28;20048;-86
2022/08/31 07:55:55;;;;;;;4.22;2.58;;;;;;;22.06;43.85;102081.75;5095159;28;20040;-84
2022/08/31 07:58:21;;;;;;;4.70;2.60;;;;;;;22.37;43.84;102083.91;5094746;28;20031;-83
2022/08/31 08:00:46;;;;;;;9.80;2.60;;;;;;;22.50;43.18;102066.59;5094767;28;20147;-86
2022/08/31 08:03:12;;;;;;;5.28;2.35;;;;;;;22.80;42.54;102081.28;5094556;28;20032;-82
2022/08/31 08:05:40;;;;;;;4.07;2.60;;;;;;;22.90;42.89;102076.59;5094626;28;20032;-89
2022/08/31 08:08:08;;;;;;;9.23;3.03;;;;;;;22.97;42.42;102072.88;5094798;28;20094;-83
2022/08/31 08:10:37;;;;;;;4.68;2.63;;;;;;;22.92;42.28;102080.19;5094570;28;20035;-87
2022/08/31 08:13:03;;;;;;;7.00;2.60;;;;;;;22.74;42.26;102078.72;5094681;28;20101;-87
2022/08/31 08:15:31;;;;;;;4.00;2.75;;;;;;;22.93;42.62;102079.25;5094704;28;20028;-86
2022/08/31 08:17:57;;;;;;;6.65;2.50;;;;;;;22.94;42.00;102089.09;5094457;28;20028;-86
2022/08/31 08:20:22;;;;;;;5.28;2.88;;;;;;;22.98;41.71;102082.72;5094595;28;20484;-83
2022/08/31 08:22:48;;;;;;;7.15;2.60;;;;;;;22.97;42.37;102087.25;5094372;28;20407;-84
2022/08/31 08:25:14;;;;;;;10.27;2.60;;;;;;;23.24;42.10;102092.94;5094403;28;20028;-87
2022/08/31 08:27:40;;;;;;;6.40;2.58;;;;;;;23.64;41.11;102097.44;5093342;28;20028;-86
2022/08/31 08:30:07;;;;;;;6.25;2.80;;;;;;;23.80;40.87;102100.69;5094321;28;20036;-89
2022/08/31 08:32:34;;;;;;;8.15;2.80;;;;;;;23.66;40.77;102092.94;5094228;28;20118;-88
2022/08/31 08:34:59;;;;;;;6.40;2.80;;;;;;;23.76;40.34;102096.28;5094379;28;20062;-89
2022/08/31 08:37:26;;;;;;;6.82;2.80;;;;;;;23.67;41.38;102100.09;5093842;28;20474;-86
2022/08/31 08:39:52;;;;;;;6.78;2.70;;;;;;;23.77;41.62;102106.16;5093981;28;20031;-88
2022/08/31 08:42:20;;;;;;;8.10;2.60;;;;;;;23.72;41.10;102100.88;5094443;28;20032;-92
2022/08/31 08:44:46;;;;;;;4.82;2.67;;;;;;;23.76;41.20;102101.69;5095447;28;20032;-87
2022/08/31 08:47:21;;;;;;;9.85;2.63;;;;;;;23.93;40.79;102105.75;5100278;28;20032;-87
2022/08/31 08:50:00;;;;;;;5.55;2.70;;;;;;;23.75;41.40;102111.59;5094458;28;20032;-87
2022/08/31 08:52:40;;;;;;;8.75;2.88;;;;;;;23.68;42.00;102101.84;5094047;28;20102;-90
2022/08/31 08:55:10;;;;;;;5.10;2.70;;;;;;;23.79;42.34;102102.50;5093906;28;20032;-87
2022/08/31 08:57:40;;;;;;;7.68;2.88;;;;;;;23.84;41.30;102091.59;5075622;28;20036;-89
2022/08/31 09:00:19;;;;;;;6.07;2.70;;;;;;;24.08;41.26;102090.09;5094195;28;20024;-93
2022/08/31 09:02:59;;;;;;;8.20;3.00;;;;;;;24.26;40.84;102088.72;5093806;28;20028;-91
2022/08/31 09:06:08;;;;;;;3.92;2.70;;;;;;;24.49;40.79;102095.31;5093687;28;20028;-85
2022/08/31 09:08:55;;;;;;;10.90;3.15;;;;;;;24.69;39.94;102096.56;5093678;28;20106;-85
2022/08/31 09:11:34;;;;;;;5.95;2.83;;;;;;;24.91;39.46;102089.63;5093349;28;20032;-88
2022/08/31 09:14:18;;;;;;;5.75;2.97;;;;;;;24.88;39.34;102099.63;5093702;28;20366;-87
2022/08/31 09:17:02;;;;;;;7.88;2.90;;;;;;;25.05;39.30;102096.44;5093725;28;20028;-85
2022/08/31 09:19:56;;;;;;;5.65;3.13;;;;;;;25.01;39.05;102094.75;5093309;28;20028;-87
2022/08/31 09:22:13;;;;;;;6.80;2.85;;;;;;;25.20;38.79;102085.19;5078002;28;20515;-88
2022/08/31 09:24:38;;;;;;;9.38;3.22;;;;;;;25.44;38.64;102088.97;5093521;28;20110;-84
2022/08/31 09:27:19;;;;;;;5.40;3.20;;;;;;;25.70;38.24;102093.56;5093226;28;20035;-86
2022/08/31 09:29:56;;;;;;;6.38;3.33;;;;;;;26.25;37.93;102083.56;5093313;28;20059;-84
2022/08/31 09:32:25;;;;;;;5.40;2.70;;;;;;;26.65;36.71;102077.66;5093033;28;20123;-84
2022/08/31 09:34:54;;;;;;;6.80;3.30;;;;;;;26.50;36.34;102080.03;5093418;28;20417;-84
2022/08/31 09:37:23;;;;;;;9.65;3.10;;;;;;;26.37;37.14;102080.44;5092602;28;20033;-85
2022/08/31 09:39:51;;;;;;;7.28;3.25;;;;;;;26.42;36.68;102078.47;5092964;28;20028;-87
2022/08/31 09:42:25;;;;;;;9.75;3.00;;;;;;;26.61;36.77;102080.53;5093081;28;20036;-87
2022/08/31 09:44:50;;;;;;;8.13;3.17;;;;;;;26.78;36.72;102082.63;5092984;28;20035;-88
2022/08/31 09:47:46;;;;;;;8.35;3.40;;;;;;;26.89;36.50;102083.97;5093292;28;20032;-89
2022/08/31 09:50:31;;;;;;;8.18;3.20;;;;;;;26.75;36.62;102090.88;5082931;28;20079;-92
2022/08/31 09:56:12;;;;;;;4.30;3.33;;;;;;;26.53;37.44;102091.66;5093381;28;20101;-83
2022/08/31 09:58:40;;;;;;;6.18;3.47;;;;;;;26.34;37.54;102098.66;5092857;28;20366;-82
2022/08/31 10:01:12;;;;;;;8.10;3.15;;;;;;;26.39;36.66;102089.41;5092668;28;20032;-86
2022/08/31 10:03:43;;;;;;;7.50;3.42;;;;;;;26.35;37.31;102087.75;5093211;28;20032;-83
2022/08/31 10:06:24;;;;;;;6.72;3.15;;;;;;;26.42;37.68;102083.88;5093585;28;20028;-79
2022/08/31 10:08:57;;;;;;;11.30;3.33;;;;;;;26.25;37.26;102077.25;5093247;28;20024;-87
2022/08/31 10:11:28;;;;;;;7.57;3.38;;;;;;;26.25;38.18;102082.69;5093208;28;20106;-84
2022/08/31 10:14:21;;;;;;;8.18;3.58;;;;;;;26.38;37.47;102075.88;5093010;28;20032;-82
2022/08/31 10:16:54;;;;;;;12.63;3.47;;;;;;;26.62;37.40;102077.75;5065023;28;20033;-84
2022/08/31 10:19:29;;;;;;;9.45;3.45;;;;;;;26.84;37.30;102074.25;5093054;28;20032;-82
2022/08/31 10:22:24;;;;;;;5.00;3.20;;;;;;;27.51;35.84;102077.06;5093108;28;20032;-84
2022/08/31 10:25:14;;;;;;;6.05;3.35;;;;;;;27.96;34.98;102067.97;5093075;28;20389;-83
2022/08/31 10:27:47;;;;;;;6.30;3.47;;;;;;;28.39;34.22;102061.59;5092954;28;20040;-83
2022/08/31 10:30:19;;;;;;;8.85;3.03;;;;;;;28.72;33.74;102068.28;5092877;28;20111;-82
2022/08/31 10:35:02;;;;;;;6.88;3.90;;;;;;;28.61;33.83;102066.09;5092263;28;20111;-83
2022/08/31 10:36:19;;;;;;;6.15;3.30;;;;;;;28.16;34.18;102051.69;5031031;28;20070;-86
2022/08/31 10:38:49;;;;;;;17.20;3.58;;;;;;;28.02;34.71;102054.16;5092801;28;20032;-85
2022/08/31 10:41:29;;;;;;;12.68;3.58;;;;;;;28.25;34.66;102066.72;5092647;28;20028;-85
2022/08/31 10:44:02;;;;;;;9.73;3.70;;;;;;;28.23;34.49;102057.75;5092864;28;20104;-84
2022/08/31 10:46:33;;;;;;;7.53;3.40;;;;;;;28.23;34.85;102056.88;5092604;28;20128;-84
2022/08/31 10:49:01;;;;;;;6.75;3.50;;;;;;;28.52;34.11;102061.03;5092667;28;20038;-84
2022/08/31 10:51:26;;;;;;;9.00;3.42;;;;;;;28.77;33.14;102061.69;5096241;28;20039;-84
2022/08/31 10:53:58;;;;;;;6.78;3.90;;;;;;;28.87;33.48;102057.59;5096321;28;20048;-84
2022/08/31 10:56:57;;;;;;;8.13;3.50;;;;;;;29.11;32.92;102058.28;5096170;28;20024;-84
2022/08/31 10:59:58;;;;;;;7.63;3.45;;;;;;;28.69;33.87;102051.19;5095884;28;20109;-84
2022/08/31 11:02:47;;;;;;;5.65;3.78;;;;;;;28.84;33.54;102056.84;5081235;28;20043;-85
2022/08/31 11:05:29;;;;;;;7.13;3.55;;;;;;;29.02;33.48;102060.56;5095947;28;20017;-85
2022/08/31 11:07:57;;;;;;;8.77;3.50;;;;;;;29.38;33.20;102052.50;5095777;28;20028;-84
2022/08/31 11:10:31;;;;;;;10.32;4.00;;;;;;;29.28;32.42;102068.38;5095676;28;20146;-84
2022/08/31 11:13:15;;;;;;;9.15;3.60;;;;;;;29.28;33.07;102049.31;5095747;28;20115;-84
2022/08/31 11:16:25;;;;;;;5.28;3.17;;;;;;;29.49;33.01;102043.78;5095541;28;20421;-86
2022/08/31 11:19:12;;;;;;;7.68;3.65;;;;;;;29.01;33.26;102046.09;5084058;28;20036;-82
2022/08/31 11:21:49;;;;;;;7.45;3.75;;;;;;;28.66;34.30;102047.72;5095590;28;20050;-86
2022/08/31 11:24:23;;;;;;;5.40;3.58;;;;;;;28.29;34.41;102053.88;5095820;28;20496;-86
2022/08/31 11:27:04;;;;;;;7.50;3.72;;;;;;;28.26;34.95;102048.56;5096595;28;20114;-85
2022/08/31 11:29:30;;;;;;;11.50;3.58;;;;;;;28.60;34.11;102039.81;5096008;28;20039;-85
2022/08/31 11:32:03;;;;;;;8.60;3.90;;;;;;;28.70;33.86;102050.22;5077945;28;20454;-85
2022/08/31 11:34:46;;;;;;;9.38;3.50;;;;;;;28.72;33.89;102035.66;5095386;28;20032;-85
2022/08/31 11:37:31;;;;;;;9.93;3.75;;;;;;;28.54;34.60;102029.22;5095439;28;20036;-84
2022/08/31 11:39:57;;;;;;;8.48;3.50;;;;;;;28.62;34.23;102035.19;5095209;28;20028;-85
2022/08/31 11:42:25;;;;;;;9.45;3.60;;;;;;;29.10;33.39;102033.88;5095559;28;20500;-84
2022/08/31 11:45:05;;;;;;;7.38;3.33;;;;;;;29.48;33.63;102032.00;5096047;28;20115;-85
2022/08/31 11:47:43;;;;;;;9.32;3.30;;;;;;;29.79;32.49;102028.63;5096288;28;20047;-85
2022/08/31 11:50:30;;;;;;;11.27;3.50;;;;;;;29.95;31.72;102031.47;5103184;28;20075;-85